sensor_id;sensor_type;location;lat;lon;timestamp;temperature;humidity
19044;DHT22;9654;52.302;8.120;2023-09-18T00:01:48;18.20;99.90
19044;DHT22;9654;52.302;8.120;2023-09-18T00:04:14;18.20;99.90
19044;DHT22;9654;52.302;8.120;2023-09-18T00:06:41;18.30;99.90
19044;DHT22;9654;52.302;8.120;2023-09-18T00:09:09;18.20;99.90
19044;DHT22;9654;52.302;8.120;2023-09-18T00:11:39;18.20;99.90
19044;DHT22;9654;52.302;8.120;2023-09-18T00:14:06;18.20;99.90
19044;DHT22;9654;52.302;8.120;2023-09-18T00:16:35;18.20;99.90
19044;DHT22;9654;52.302;8.120;2023-09-18T00:19:01;18.30;99.90
19044;DHT22;9654;52.302;8.120;2023-09-18T00:21:29;18.20;99.90
19044;DHT22;9654;52.302;8.120;2023-09-18T00:23:56;18.20;99.90
19044;DHT22;9654;52.302;8.120;2023-09-18T00:26:25;18.20;99.90
19044;DHT22;9654;52.302;8.120;2023-09-18T00:28:51;18.20;99.90
19044;DHT22;9654;52.302;8.120;2023-09-18T00:31:19;18.30;99.90
19044;DHT22;9654;52.302;8.120;2023-09-18T00:33:46;18.30;99.90
19044;DHT22;9654;52.302;8.120;2023-09-18T00:36:13;18.30;99.90
19044;DHT22;9654;52.302;8.120;2023-09-18T00:38:40;18.30;99.90
19044;DHT22;9654;52.302;8.120;2023-09-18T00:41:07;18.20;99.90
19044;DHT22;9654;52.302;8.120;2023-09-18T00:43:35;18.20;99.90
19044;DHT22;9654;52.302;8.120;2023-09-18T00:46:03;18.20;99.90
19044;DHT22;9654;52.302;8.120;2023-09-18T00:48:30;18.30;99.90
19044;DHT22;9654;52.302;8.120;2023-09-18T00:50:57;18.30;99.90
19044;DHT22;9654;52.302;8.120;2023-09-18T00:53:25;18.30;99.90
19044;DHT22;9654;52.302;8.120;2023-09-18T00:55:54;18.30;99.90
19044;DHT22;9654;52.302;8.120;2023-09-18T00:58:21;18.30;99.90
19044;DHT22;9654;52.302;8.120;2023-09-18T01:00:50;18.30;99.90
19044;DHT22;9654;52.302;8.120;2023-09-18T01:03:17;18.40;99.90
19044;DHT22;9654;52.302;8.120;2023-09-18T01:05:44;18.40;99.90
19044;DHT22;9654;52.302;8.120;2023-09-18T01:08:11;18.40;99.90
19044;DHT22;9654;52.302;8.120;2023-09-18T01:10:44;18.40;99.90
19044;DHT22;9654;52.302;8.120;2023-09-18T01:13:17;18.40;99.90
19044;DHT22;9654;52.302;8.120;2023-09-18T01:15:54;18.50;99.90
19044;DHT22;9654;52.302;8.120;2023-09-18T01:18:21;18.50;99.90
19044;DHT22;9654;52.302;8.120;2023-09-18T01:20:48;18.40;99.90
19044;DHT22;9654;52.302;8.120;2023-09-18T01:23:16;18.40;99.90
19044;DHT22;9654;52.302;8.120;2023-09-18T01:25:43;18.50;99.90
19044;DHT22;9654;52.302;8.120;2023-09-18T01:28:10;18.50;99.90
19044;DHT22;9654;52.302;8.120;2023-09-18T01:30:37;18.50;99.90
19044;DHT22;9654;52.302;8.120;2023-09-18T01:33:04;18.50;99.90
19044;DHT22;9654;52.302;8.120;2023-09-18T01:35:31;18.50;99.90
19044;DHT22;9654;52.302;8.120;2023-09-18T01:38:00;18.50;99.90
19044;DHT22;9654;52.302;8.120;2023-09-18T01:40:30;18.50;99.90
19044;DHT22;9654;52.302;8.120;2023-09-18T01:42:58;18.50;99.90
19044;DHT22;9654;52.302;8.120;2023-09-18T01:45:24;18.50;99.90
19044;DHT22;9654;52.302;8.120;2023-09-18T01:47:51;18.40;99.90
19044;DHT22;9654;52.302;8.120;2023-09-18T01:50:18;18.40;99.90
19044;DHT22;9654;52.302;8.120;2023-09-18T01:52:45;18.40;99.90
19044;DHT22;9654;52.302;8.120;2023-09-18T01:55:12;18.50;99.90
19044;DHT22;9654;52.302;8.120;2023-09-18T01:57:40;18.50;99.90
19044;DHT22;9654;52.302;8.120;2023-09-18T02:00:08;18.50;99.90
19044;DHT22;9654;52.302;8.120;2023-09-18T02:02:36;18.50;99.90
19044;DHT22;9654;52.302;8.120;2023-09-18T02:05:03;18.50;99.90
19044;DHT22;9654;52.302;8.120;2023-09-18T02:07:30;18.50;99.90
19044;DHT22;9654;52.302;8.120;2023-09-18T02:09:57;18.50;99.90
19044;DHT22;9654;52.302;8.120;2023-09-18T02:12:24;18.50;99.90
19044;DHT22;9654;52.302;8.120;2023-09-18T02:14:52;18.50;99.90
19044;DHT22;9654;52.302;8.120;2023-09-18T02:17:19;18.50;99.90
19044;DHT22;9654;52.302;8.120;2023-09-18T02:19:46;18.50;99.90
19044;DHT22;9654;52.302;8.120;2023-09-18T02:22:13;18.50;99.90
19044;DHT22;9654;52.302;8.120;2023-09-18T02:24:39;18.50;99.90
19044;DHT22;9654;52.302;8.120;2023-09-18T02:27:06;18.50;99.90
19044;DHT22;9654;52.302;8.120;2023-09-18T02:29:33;18.40;99.90
19044;DHT22;9654;52.302;8.120;2023-09-18T02:32:01;18.40;99.90
19044;DHT22;9654;52.302;8.120;2023-09-18T02:34:28;18.40;99.90
19044;DHT22;9654;52.302;8.120;2023-09-18T02:36:55;18.40;99.90
19044;DHT22;9654;52.302;8.120;2023-09-18T02:39:22;18.40;99.90
19044;DHT22;9654;52.302;8.120;2023-09-18T02:41:49;18.40;99.90
19044;DHT22;9654;52.302;8.120;2023-09-18T02:44:16;18.40;99.90
19044;DHT22;9654;52.302;8.120;2023-09-18T02:46:42;18.40;99.90
19044;DHT22;9654;52.302;8.120;2023-09-18T02:49:11;18.40;99.90
19044;DHT22;9654;52.302;8.120;2023-09-18T02:51:37;18.40;99.90
19044;DHT22;9654;52.302;8.120;2023-09-18T02:54:05;18.40;99.90
19044;DHT22;9654;52.302;8.120;2023-09-18T02:56:31;18.30;99.90
19044;DHT22;9654;52.302;8.120;2023-09-18T02:58:58;18.40;99.90
19044;DHT22;9654;52.302;8.120;2023-09-18T03:01:25;18.40;99.90
19044;DHT22;9654;52.302;8.120;2023-09-18T03:03:52;18.40;99.90
19044;DHT22;9654;52.302;8.120;2023-09-18T03:06:20;18.40;99.90
19044;DHT22;9654;52.302;8.120;2023-09-18T03:08:47;18.40;99.90
19044;DHT22;9654;52.302;8.120;2023-09-18T03:11:14;18.40;99.90
19044;DHT22;9654;52.302;8.120;2023-09-18T03:13:45;18.40;99.90
19044;DHT22;9654;52.302;8.120;2023-09-18T03:16:40;18.40;99.90
19044;DHT22;9654;52.302;8.120;2023-09-18T03:19:07;18.40;99.90
19044;DHT22;9654;52.302;8.120;2023-09-18T03:21:35;18.40;99.90
19044;DHT22;9654;52.302;8.120;2023-09-18T03:24:02;18.40;99.90
19044;DHT22;9654;52.302;8.120;2023-09-18T03:26:29;18.40;99.90
19044;DHT22;9654;52.302;8.120;2023-09-18T03:28:56;18.50;99.90
19044;DHT22;9654;52.302;8.120;2023-09-18T03:31:23;18.50;99.90
19044;DHT22;9654;52.302;8.120;2023-09-18T03:33:49;18.50;99.90
19044;DHT22;9654;52.302;8.120;2023-09-18T03:36:16;18.50;99.90
19044;DHT22;9654;52.302;8.120;2023-09-18T03:38:44;18.50;99.90
19044;DHT22;9654;52.302;8.120;2023-09-18T03:41:11;18.50;99.90
19044;DHT22;9654;52.302;8.120;2023-09-18T03:43:38;18.50;99.90
19044;DHT22;9654;52.302;8.120;2023-09-18T03:46:05;18.50;99.90
19044;DHT22;9654;52.302;8.120;2023-09-18T03:48:32;18.50;99.90
19044;DHT22;9654;52.302;8.120;2023-09-18T03:51:03;18.50;99.90
19044;DHT22;9654;52.302;8.120;2023-09-18T03:53:29;18.40;99.90
19044;DHT22;9654;52.302;8.120;2023-09-18T03:55:58;18.40;99.90
19044;DHT22;9654;52.302;8.120;2023-09-18T03:58:25;18.40;99.90
19044;DHT22;9654;52.302;8.120;2023-09-18T04:00:52;18.40;99.90
19044;DHT22;9654;52.302;8.120;2023-09-18T04:03:19;18.40;99.90
19044;DHT22;9654;52.302;8.120;2023-09-18T04:05:46;18.40;99.90
19044;DHT22;9654;52.302;8.120;2023-09-18T04:08:12;18.40;99.90
19044;DHT22;9654;52.302;8.120;2023-09-18T04:10:39;18.40;99.90
19044;DHT22;9654;52.302;8.120;2023-09-18T04:13:07;18.40;99.90
19044;DHT22;9654;52.302;8.120;2023-09-18T04:15:34;18.30;99.90
19044;DHT22;9654;52.302;8.120;2023-09-18T04:18:03;18.40;99.90
19044;DHT22;9654;52.302;8.120;2023-09-18T04:20:30;18.40;99.90
19044;DHT22;9654;52.302;8.120;2023-09-18T04:23:18;18.40;99.90
19044;DHT22;9654;52.302;8.120;2023-09-18T04:25:45;18.50;99.90
19044;DHT22;9654;52.302;8.120;2023-09-18T04:28:14;18.70;99.90
19044;DHT22;9654;52.302;8.120;2023-09-18T04:30:40;18.70;99.90
19044;DHT22;9654;52.302;8.120;2023-09-18T04:33:07;18.80;99.90
19044;DHT22;9654;52.302;8.120;2023-09-18T04:35:34;18.90;99.90
19044;DHT22;9654;52.302;8.120;2023-09-18T04:38:02;18.90;99.90
19044;DHT22;9654;52.302;8.120;2023-09-18T04:40:29;18.90;99.90
19044;DHT22;9654;52.302;8.120;2023-09-18T04:42:57;18.90;99.90
19044;DHT22;9654;52.302;8.120;2023-09-18T04:45:26;18.90;99.90
19044;DHT22;9654;52.302;8.120;2023-09-18T04:47:53;18.90;99.90
19044;DHT22;9654;52.302;8.120;2023-09-18T04:50:20;18.90;99.90
19044;DHT22;9654;52.302;8.120;2023-09-18T04:52:47;18.90;99.90
19044;DHT22;9654;52.302;8.120;2023-09-18T04:55:14;18.90;99.90
19044;DHT22;9654;52.302;8.120;2023-09-18T04:57:41;19.00;99.90
19044;DHT22;9654;52.302;8.120;2023-09-18T05:00:08;19.00;99.90
19044;DHT22;9654;52.302;8.120;2023-09-18T05:02:40;19.00;99.90
19044;DHT22;9654;52.302;8.120;2023-09-18T05:05:07;19.00;99.90
19044;DHT22;9654;52.302;8.120;2023-09-18T05:07:35;19.00;99.90
19044;DHT22;9654;52.302;8.120;2023-09-18T05:10:02;19.00;99.90
19044;DHT22;9654;52.302;8.120;2023-09-18T05:12:30;18.90;99.90
19044;DHT22;9654;52.302;8.120;2023-09-18T05:14:57;19.00;99.90
19044;DHT22;9654;52.302;8.120;2023-09-18T05:17:41;18.90;99.90
19044;DHT22;9654;52.302;8.120;2023-09-18T05:20:09;18.90;99.90
19044;DHT22;9654;52.302;8.120;2023-09-18T05:22:38;19.00;99.90
19044;DHT22;9654;52.302;8.120;2023-09-18T05:25:06;18.90;99.90
19044;DHT22;9654;52.302;8.120;2023-09-18T05:27:32;18.90;99.90
19044;DHT22;9654;52.302;8.120;2023-09-18T05:29:59;19.00;99.90
19044;DHT22;9654;52.302;8.120;2023-09-18T05:32:26;19.00;99.90
19044;DHT22;9654;52.302;8.120;2023-09-18T05:34:54;19.00;99.90
19044;DHT22;9654;52.302;8.120;2023-09-18T05:37:21;19.00;99.90
19044;DHT22;9654;52.302;8.120;2023-09-18T05:39:48;19.00;99.90
19044;DHT22;9654;52.302;8.120;2023-09-18T05:42:14;19.00;99.90
19044;DHT22;9654;52.302;8.120;2023-09-18T05:44:41;19.00;99.90
19044;DHT22;9654;52.302;8.120;2023-09-18T05:47:08;19.00;99.90
19044;DHT22;9654;52.302;8.120;2023-09-18T05:49:35;18.90;99.90
19044;DHT22;9654;52.302;8.120;2023-09-18T05:52:03;19.00;99.90
19044;DHT22;9654;52.302;8.120;2023-09-18T05:54:30;19.00;99.90
19044;DHT22;9654;52.302;8.120;2023-09-18T05:56:57;19.00;99.90
19044;DHT22;9654;52.302;8.120;2023-09-18T05:59:24;18.90;99.90
19044;DHT22;9654;52.302;8.120;2023-09-18T06:01:50;19.00;99.90
19044;DHT22;9654;52.302;8.120;2023-09-18T06:04:19;19.00;99.90
19044;DHT22;9654;52.302;8.120;2023-09-18T06:06:46;19.00;99.90
19044;DHT22;9654;52.302;8.120;2023-09-18T06:09:15;19.00;99.90
19044;DHT22;9654;52.302;8.120;2023-09-18T06:11:41;19.00;99.90
19044;DHT22;9654;52.302;8.120;2023-09-18T06:14:09;19.00;99.90
19044;DHT22;9654;52.302;8.120;2023-09-18T06:16:36;19.00;99.90
19044;DHT22;9654;52.302;8.120;2023-09-18T06:19:03;19.00;99.90
19044;DHT22;9654;52.302;8.120;2023-09-18T06:21:30;19.00;99.90
19044;DHT22;9654;52.302;8.120;2023-09-18T06:23:57;19.10;99.90
19044;DHT22;9654;52.302;8.120;2023-09-18T06:26:25;19.10;99.90
19044;DHT22;9654;52.302;8.120;2023-09-18T06:28:52;19.10;99.90
19044;DHT22;9654;52.302;8.120;2023-09-18T06:31:20;19.10;99.90
19044;DHT22;9654;52.302;8.120;2023-09-18T06:33:48;19.20;99.90
19044;DHT22;9654;52.302;8.120;2023-09-18T06:36:15;19.20;99.90
19044;DHT22;9654;52.302;8.120;2023-09-18T06:38:42;19.30;99.90
19044;DHT22;9654;52.302;8.120;2023-09-18T06:41:09;19.40;99.90
19044;DHT22;9654;52.302;8.120;2023-09-18T06:43:37;19.40;99.90
19044;DHT22;9654;52.302;8.120;2023-09-18T06:46:04;19.50;99.90
19044;DHT22;9654;52.302;8.120;2023-09-18T06:48:30;19.60;99.90
19044;DHT22;9654;52.302;8.120;2023-09-18T06:50:58;19.80;99.90
19044;DHT22;9654;52.302;8.120;2023-09-18T06:53:25;19.90;99.90
19044;DHT22;9654;52.302;8.120;2023-09-18T06:55:52;20.10;99.90
19044;DHT22;9654;52.302;8.120;2023-09-18T06:58:19;20.20;99.90
19044;DHT22;9654;52.302;8.120;2023-09-18T07:00:47;20.30;99.90
19044;DHT22;9654;52.302;8.120;2023-09-18T07:03:16;20.50;99.90
19044;DHT22;9654;52.302;8.120;2023-09-18T07:05:43;20.70;99.90
19044;DHT22;9654;52.302;8.120;2023-09-18T07:08:11;20.80;99.90
19044;DHT22;9654;52.302;8.120;2023-09-18T07:10:39;20.90;99.90
19044;DHT22;9654;52.302;8.120;2023-09-18T07:13:06;21.00;99.90
19044;DHT22;9654;52.302;8.120;2023-09-18T07:15:33;21.00;99.90
19044;DHT22;9654;52.302;8.120;2023-09-18T07:18:01;21.10;99.90
19044;DHT22;9654;52.302;8.120;2023-09-18T07:20:28;21.10;99.90
19044;DHT22;9654;52.302;8.120;2023-09-18T07:22:55;21.20;99.90
19044;DHT22;9654;52.302;8.120;2023-09-18T07:25:23;21.30;99.90
19044;DHT22;9654;52.302;8.120;2023-09-18T07:27:49;21.30;99.90
19044;DHT22;9654;52.302;8.120;2023-09-18T07:30:16;21.40;99.90
19044;DHT22;9654;52.302;8.120;2023-09-18T07:32:45;21.40;99.90
19044;DHT22;9654;52.302;8.120;2023-09-18T07:35:13;21.40;99.90
19044;DHT22;9654;52.302;8.120;2023-09-18T07:37:41;21.50;99.90
19044;DHT22;9654;52.302;8.120;2023-09-18T07:40:10;21.50;99.90
19044;DHT22;9654;52.302;8.120;2023-09-18T07:42:37;21.50;99.90
19044;DHT22;9654;52.302;8.120;2023-09-18T07:45:04;21.40;99.90
19044;DHT22;9654;52.302;8.120;2023-09-18T07:47:31;21.30;99.90
19044;DHT22;9654;52.302;8.120;2023-09-18T07:49:58;21.30;99.90
19044;DHT22;9654;52.302;8.120;2023-09-18T07:52:26;21.30;99.90
19044;DHT22;9654;52.302;8.120;2023-09-18T07:57:28;21.40;99.90
19044;DHT22;9654;52.302;8.120;2023-09-18T07:59:57;21.40;99.90
19044;DHT22;9654;52.302;8.120;2023-09-18T08:02:24;21.50;99.90
19044;DHT22;9654;52.302;8.120;2023-09-18T08:04:54;21.50;99.90
19044;DHT22;9654;52.302;8.120;2023-09-18T08:07:20;21.60;99.90
19044;DHT22;9654;52.302;8.120;2023-09-18T08:09:49;21.60;99.90
19044;DHT22;9654;52.302;8.120;2023-09-18T08:12:16;21.70;99.90
19044;DHT22;9654;52.302;8.120;2023-09-18T08:14:43;21.70;99.90
19044;DHT22;9654;52.302;8.120;2023-09-18T08:17:10;21.70;99.90
19044;DHT22;9654;52.302;8.120;2023-09-18T08:19:37;21.80;99.90
19044;DHT22;9654;52.302;8.120;2023-09-18T08:22:05;21.80;99.90
19044;DHT22;9654;52.302;8.120;2023-09-18T08:24:32;21.80;99.90
19044;DHT22;9654;52.302;8.120;2023-09-18T08:27:00;21.80;99.90
19044;DHT22;9654;52.302;8.120;2023-09-18T08:29:27;21.80;99.90
19044;DHT22;9654;52.302;8.120;2023-09-18T08:31:53;21.80;99.90
19044;DHT22;9654;52.302;8.120;2023-09-18T08:34:20;21.80;99.90
19044;DHT22;9654;52.302;8.120;2023-09-18T08:36:47;21.70;99.90
19044;DHT22;9654;52.302;8.120;2023-09-18T08:39:14;21.70;99.90
19044;DHT22;9654;52.302;8.120;2023-09-18T08:41:43;21.70;99.90
19044;DHT22;9654;52.302;8.120;2023-09-18T08:44:12;21.60;99.90
19044;DHT22;9654;52.302;8.120;2023-09-18T08:46:40;21.60;99.90
19044;DHT22;9654;52.302;8.120;2023-09-18T08:49:07;21.70;99.90
19044;DHT22;9654;52.302;8.120;2023-09-18T08:51:35;21.70;99.90
19044;DHT22;9654;52.302;8.120;2023-09-18T08:54:04;21.80;99.90
19044;DHT22;9654;52.302;8.120;2023-09-18T08:56:32;21.80;99.90
19044;DHT22;9654;52.302;8.120;2023-09-18T08:59:00;21.70;99.90
19044;DHT22;9654;52.302;8.120;2023-09-18T09:01:28;21.70;99.90
19044;DHT22;9654;52.302;8.120;2023-09-18T09:04:14;21.70;99.90
19044;DHT22;9654;52.302;8.120;2023-09-18T09:06:41;21.60;99.90
19044;DHT22;9654;52.302;8.120;2023-09-18T09:09:09;21.60;99.90
19044;DHT22;9654;52.302;8.120;2023-09-18T09:11:38;21.60;99.90
19044;DHT22;9654;52.302;8.120;2023-09-18T09:14:09;21.70;99.90
19044;DHT22;9654;52.302;8.120;2023-09-18T09:16:40;21.70;99.90
19044;DHT22;9654;52.302;8.120;2023-09-18T09:19:06;21.70;99.90
19044;DHT22;9654;52.302;8.120;2023-09-18T09:21:40;21.70;99.90
19044;DHT22;9654;52.302;8.120;2023-09-18T09:24:09;21.80;99.90
19044;DHT22;9654;52.302;8.120;2023-09-18T09:26:39;21.80;99.90
19044;DHT22;9654;52.302;8.120;2023-09-18T09:29:17;21.70;99.90
19044;DHT22;9654;52.302;8.120;2023-09-18T09:31:46;21.70;99.90
19044;DHT22;9654;52.302;8.120;2023-09-18T09:34:24;21.80;99.90
19044;DHT22;9654;52.302;8.120;2023-09-18T09:36:52;21.70;99.90
19044;DHT22;9654;52.302;8.120;2023-09-18T09:39:19;21.70;99.90
19044;DHT22;9654;52.302;8.120;2023-09-18T09:41:50;21.60;99.90
19044;DHT22;9654;52.302;8.120;2023-09-18T09:44:17;21.60;99.90
19044;DHT22;9654;52.302;8.120;2023-09-18T09:46:47;21.60;99.90
19044;DHT22;9654;52.302;8.120;2023-09-18T09:49:15;21.60;99.90
19044;DHT22;9654;52.302;8.120;2023-09-18T09:51:43;21.60;99.90
19044;DHT22;9654;52.302;8.120;2023-09-18T09:54:10;21.70;99.90
19044;DHT22;9654;52.302;8.120;2023-09-18T09:56:41;21.80;99.90
19044;DHT22;9654;52.302;8.120;2023-09-18T09:59:09;21.90;99.90
19044;DHT22;9654;52.302;8.120;2023-09-18T10:01:37;21.90;99.90
19044;DHT22;9654;52.302;8.120;2023-09-18T10:04:11;21.90;99.90
19044;DHT22;9654;52.302;8.120;2023-09-18T10:06:42;21.90;99.90
19044;DHT22;9654;52.302;8.120;2023-09-18T10:09:10;21.80;99.90
19044;DHT22;9654;52.302;8.120;2023-09-18T10:11:42;21.90;99.90
19044;DHT22;9654;52.302;8.120;2023-09-18T10:14:14;21.90;99.90
19044;DHT22;9654;52.302;8.120;2023-09-18T10:16:46;21.80;99.90
19044;DHT22;9654;52.302;8.120;2023-09-18T10:19:23;22.00;99.90
19044;DHT22;9654;52.302;8.120;2023-09-18T10:21:59;22.10;99.90
19044;DHT22;9654;52.302;8.120;2023-09-18T10:24:33;22.20;99.90
19044;DHT22;9654;52.302;8.120;2023-09-18T10:27:03;22.30;99.90
19044;DHT22;9654;52.302;8.120;2023-09-18T10:29:33;22.30;99.90
19044;DHT22;9654;52.302;8.120;2023-09-18T10:32:03;22.30;99.90
19044;DHT22;9654;52.302;8.120;2023-09-18T10:34:32;22.50;99.90
19044;DHT22;9654;52.302;8.120;2023-09-18T10:37:01;22.50;99.90
19044;DHT22;9654;52.302;8.120;2023-09-18T10:39:29;22.40;99.90
19044;DHT22;9654;52.302;8.120;2023-09-18T10:42:01;22.40;99.90
19044;DHT22;9654;52.302;8.120;2023-09-18T10:44:29;22.40;99.90
19044;DHT22;9654;52.302;8.120;2023-09-18T10:46:57;22.40;99.90
19044;DHT22;9654;52.302;8.120;2023-09-18T10:49:25;22.40;99.90
19044;DHT22;9654;52.302;8.120;2023-09-18T10:51:55;22.30;99.90
19044;DHT22;9654;52.302;8.120;2023-09-18T10:54:24;22.40;99.90
19044;DHT22;9654;52.302;8.120;2023-09-18T10:56:51;22.50;99.90
19044;DHT22;9654;52.302;8.120;2023-09-18T10:59:18;22.60;99.90
19044;DHT22;9654;52.302;8.120;2023-09-18T11:01:47;22.70;99.90
19044;DHT22;9654;52.302;8.120;2023-09-18T11:04:18;22.70;99.90
19044;DHT22;9654;52.302;8.120;2023-09-18T11:07:04;22.60;99.90
19044;DHT22;9654;52.302;8.120;2023-09-18T11:09:40;22.50;99.90
19044;DHT22;9654;52.302;8.120;2023-09-18T11:12:09;22.50;99.90
19044;DHT22;9654;52.302;8.120;2023-09-18T11:14:48;22.50;42.30
19044;DHT22;9654;52.302;8.120;2023-09-18T11:17:29;22.50;1.00
19044;DHT22;9654;52.302;8.120;2023-09-18T11:20:08;22.50;99.90
19044;DHT22;9654;52.302;8.120;2023-09-18T11:22:39;22.70;99.90
19044;DHT22;9654;52.302;8.120;2023-09-18T11:25:28;22.80;1.00
19044;DHT22;9654;52.302;8.120;2023-09-18T11:27:56;22.60;99.90
19044;DHT22;9654;52.302;8.120;2023-09-18T11:30:23;22.70;1.00
19044;DHT22;9654;52.302;8.120;2023-09-18T11:32:51;22.90;1.00
19044;DHT22;9654;52.302;8.120;2023-09-18T11:35:19;22.90;1.00
19044;DHT22;9654;52.302;8.120;2023-09-18T11:37:47;23.00;1.00
19044;DHT22;9654;52.302;8.120;2023-09-18T11:40:32;23.10;1.00
19044;DHT22;9654;52.302;8.120;2023-09-18T11:43:22;23.20;31.80
19044;DHT22;9654;52.302;8.120;2023-09-18T11:45:51;23.40;99.90
19044;DHT22;9654;52.302;8.120;2023-09-18T11:48:19;23.50;1.00
19044;DHT22;9654;52.302;8.120;2023-09-18T11:50:47;23.40;1.00
19044;DHT22;9654;52.302;8.120;2023-09-18T11:53:18;23.20;1.00
19044;DHT22;9654;52.302;8.120;2023-09-18T11:55:45;23.20;99.90
19044;DHT22;9654;52.302;8.120;2023-09-18T11:58:12;23.40;99.90
19044;DHT22;9654;52.302;8.120;2023-09-18T12:00:39;23.50;70.50
19044;DHT22;9654;52.302;8.120;2023-09-18T12:03:16;23.50;1.00
19044;DHT22;9654;52.302;8.120;2023-09-18T12:05:51;23.40;1.00
19044;DHT22;9654;52.302;8.120;2023-09-18T12:08:20;23.50;1.00
19044;DHT22;9654;52.302;8.120;2023-09-18T12:10:50;23.50;99.90
19044;DHT22;9654;52.302;8.120;2023-09-18T12:13:17;23.60;1.00
19044;DHT22;9654;52.302;8.120;2023-09-18T12:15:44;23.80;1.00
19044;DHT22;9654;52.302;8.120;2023-09-18T12:18:11;23.90;99.90
19044;DHT22;9654;52.302;8.120;2023-09-18T12:20:45;24.00;99.90
19044;DHT22;9654;52.302;8.120;2023-09-18T12:23:12;24.00;1.00
19044;DHT22;9654;52.302;8.120;2023-09-18T12:25:40;24.10;1.00
19044;DHT22;9654;52.302;8.120;2023-09-18T12:28:08;23.90;1.00
19044;DHT22;9654;52.302;8.120;2023-09-18T12:30:35;24.10;1.00
19044;DHT22;9654;52.302;8.120;2023-09-18T12:33:02;24.40;1.00
19044;DHT22;9654;52.302;8.120;2023-09-18T12:35:31;24.50;50.80
19044;DHT22;9654;52.302;8.120;2023-09-18T12:37:58;24.50;1.00
19044;DHT22;9654;52.302;8.120;2023-09-18T12:40:26;24.70;1.00
19044;DHT22;9654;52.302;8.120;2023-09-18T12:42:56;24.80;1.00
19044;DHT22;9654;52.302;8.120;2023-09-18T12:45:24;24.70;1.00
19044;DHT22;9654;52.302;8.120;2023-09-18T12:47:51;24.90;1.00
19044;DHT22;9654;52.302;8.120;2023-09-18T12:50:18;25.00;1.00
19044;DHT22;9654;52.302;8.120;2023-09-18T12:52:45;25.00;1.00
19044;DHT22;9654;52.302;8.120;2023-09-18T12:55:23;24.90;1.00
19044;DHT22;9654;52.302;8.120;2023-09-18T12:57:51;24.70;1.00
19044;DHT22;9654;52.302;8.120;2023-09-18T13:00:21;24.60;1.00
19044;DHT22;9654;52.302;8.120;2023-09-18T13:02:49;24.60;1.00
19044;DHT22;9654;52.302;8.120;2023-09-18T13:05:21;24.80;1.00
19044;DHT22;9654;52.302;8.120;2023-09-18T13:07:51;25.00;1.00
19044;DHT22;9654;52.302;8.120;2023-09-18T13:10:19;25.10;1.00
19044;DHT22;9654;52.302;8.120;2023-09-18T13:12:48;25.00;99.90
19044;DHT22;9654;52.302;8.120;2023-09-18T13:15:25;25.10;99.90
19044;DHT22;9654;52.302;8.120;2023-09-18T13:17:54;25.20;99.90
19044;DHT22;9654;52.302;8.120;2023-09-18T13:20:22;25.30;99.90
19044;DHT22;9654;52.302;8.120;2023-09-18T13:22:50;25.20;99.90
19044;DHT22;9654;52.302;8.120;2023-09-18T13:25:21;25.20;99.90
19044;DHT22;9654;52.302;8.120;2023-09-18T13:27:49;25.10;99.90
19044;DHT22;9654;52.302;8.120;2023-09-18T13:30:16;24.90;99.90
19044;DHT22;9654;52.302;8.120;2023-09-18T13:32:45;24.90;1.00
19044;DHT22;9654;52.302;8.120;2023-09-18T13:35:14;24.80;1.00
19044;DHT22;9654;52.302;8.120;2023-09-18T13:37:41;24.70;1.00
19044;DHT22;9654;52.302;8.120;2023-09-18T13:40:09;24.60;1.00
19044;DHT22;9654;52.302;8.120;2023-09-18T13:42:36;24.40;1.00
19044;DHT22;9654;52.302;8.120;2023-09-18T13:45:17;24.20;1.00
19044;DHT22;9654;52.302;8.120;2023-09-18T13:47:45;24.10;1.00
19044;DHT22;9654;52.302;8.120;2023-09-18T13:50:14;24.00;43.80
19044;DHT22;9654;52.302;8.120;2023-09-18T13:52:41;24.00;1.00
19044;DHT22;9654;52.302;8.120;2023-09-18T13:55:08;23.90;1.00
19044;DHT22;9654;52.302;8.120;2023-09-18T13:57:35;23.90;1.00
19044;DHT22;9654;52.302;8.120;2023-09-18T14:00:04;24.00;1.00
19044;DHT22;9654;52.302;8.120;2023-09-18T14:02:33;24.40;1.00
19044;DHT22;9654;52.302;8.120;2023-09-18T14:05:01;24.40;1.00
19044;DHT22;9654;52.302;8.120;2023-09-18T14:07:28;24.40;99.90
19044;DHT22;9654;52.302;8.120;2023-09-18T14:09:55;24.40;1.00
19044;DHT22;9654;52.302;8.120;2023-09-18T14:12:23;24.40;1.00
19044;DHT22;9654;52.302;8.120;2023-09-18T14:14:50;24.30;1.00
19044;DHT22;9654;52.302;8.120;2023-09-18T14:17:17;24.20;1.00
19044;DHT22;9654;52.302;8.120;2023-09-18T14:19:47;24.10;1.00
19044;DHT22;9654;52.302;8.120;2023-09-18T14:22:15;24.10;1.00
19044;DHT22;9654;52.302;8.120;2023-09-18T14:24:42;24.10;1.00
19044;DHT22;9654;52.302;8.120;2023-09-18T14:27:08;24.10;1.00
19044;DHT22;9654;52.302;8.120;2023-09-18T14:29:36;24.30;1.00
19044;DHT22;9654;52.302;8.120;2023-09-18T14:32:03;24.60;1.00
19044;DHT22;9654;52.302;8.120;2023-09-18T14:34:32;24.90;1.00
19044;DHT22;9654;52.302;8.120;2023-09-18T14:37:00;25.00;99.90
19044;DHT22;9654;52.302;8.120;2023-09-18T14:39:30;25.00;99.90
19044;DHT22;9654;52.302;8.120;2023-09-18T14:41:58;24.90;99.90
19044;DHT22;9654;52.302;8.120;2023-09-18T14:44:25;24.70;99.90
19044;DHT22;9654;52.302;8.120;2023-09-18T14:46:52;24.70;99.90
19044;DHT22;9654;52.302;8.120;2023-09-18T14:49:19;24.80;99.90
19044;DHT22;9654;52.302;8.120;2023-09-18T14:51:46;24.80;99.90
19044;DHT22;9654;52.302;8.120;2023-09-18T14:54:14;25.00;99.90
19044;DHT22;9654;52.302;8.120;2023-09-18T14:56:42;24.90;99.90
19044;DHT22;9654;52.302;8.120;2023-09-18T14:59:11;24.90;99.90
19044;DHT22;9654;52.302;8.120;2023-09-18T15:01:38;24.90;89.90
19044;DHT22;9654;52.302;8.120;2023-09-18T15:04:08;25.00;99.90
19044;DHT22;9654;52.302;8.120;2023-09-18T15:06:35;25.10;21.80
19044;DHT22;9654;52.302;8.120;2023-09-18T15:09:02;25.10;1.00
19044;DHT22;9654;52.302;8.120;2023-09-18T15:11:29;25.10;1.00
19044;DHT22;9654;52.302;8.120;2023-09-18T15:13:57;25.10;1.00
19044;DHT22;9654;52.302;8.120;2023-09-18T15:16:24;25.00;1.00
19044;DHT22;9654;52.302;8.120;2023-09-18T15:18:51;24.80;1.00
19044;DHT22;9654;52.302;8.120;2023-09-18T15:21:19;24.80;1.00
19044;DHT22;9654;52.302;8.120;2023-09-18T15:23:46;24.90;1.00
19044;DHT22;9654;52.302;8.120;2023-09-18T15:26:14;24.90;1.00
19044;DHT22;9654;52.302;8.120;2023-09-18T15:28:40;24.80;1.00
19044;DHT22;9654;52.302;8.120;2023-09-18T15:31:09;24.90;1.00
19044;DHT22;9654;52.302;8.120;2023-09-18T15:33:35;24.90;18.60
19044;DHT22;9654;52.302;8.120;2023-09-18T15:36:04;25.00;1.00
19044;DHT22;9654;52.302;8.120;2023-09-18T15:38:30;25.00;1.00
19044;DHT22;9654;52.302;8.120;2023-09-18T15:40:57;24.90;1.00
19044;DHT22;9654;52.302;8.120;2023-09-18T15:43:25;24.90;1.00
19044;DHT22;9654;52.302;8.120;2023-09-18T15:45:51;24.80;1.00
19044;DHT22;9654;52.302;8.120;2023-09-18T15:48:20;24.60;1.00
19044;DHT22;9654;52.302;8.120;2023-09-18T15:50:47;24.40;1.00
19044;DHT22;9654;52.302;8.120;2023-09-18T15:53:14;24.30;1.00
19044;DHT22;9654;52.302;8.120;2023-09-18T15:55:41;24.20;1.00
19044;DHT22;9654;52.302;8.120;2023-09-18T15:58:08;24.10;1.00
19044;DHT22;9654;52.302;8.120;2023-09-18T16:00:36;24.10;1.00